Time;durP1;ratioP1;P1;durP2;ratioP2;P2;SDS_P1;SDS_P2;PMS_P1;PMS_P2;Temp;Humidity;BMP_temperature;BMP_pressure;BME280_temperature;BME280_humidity;BME280_pressure;Samples;Min_cycle;Max_cycle;Signal;HPM_P1;HPM_P2
2022/12/22 03:29:07;;;;;;;23.20;12.50;;;4.60;99.90;;;;;;10349930;28;20262;-79
2022/12/22 03:34:28;;;;;;;20.77;11.40;;;4.60;99.90;;;;;;10383709;28;20198;-78
2022/12/22 03:39:49;;;;;;;22.23;13.83;;;4.70;99.90;;;;;;10396531;28;20258;-79
2022/12/22 03:50:51;;;;;;;22.27;12.13;;;4.70;99.90;;;;;;10395836;28;20478;-78
2022/12/22 03:56:12;;;;;;;23.30;12.50;;;4.70;99.90;;;;;;10396472;28;20478;-78
2022/12/22 04:01:36;;;;;;;23.93;12.43;;;4.70;99.90;;;;;;10382133;28;20204;-79
2022/12/22 04:06:58;;;;;;;20.40;12.57;;;4.70;99.90;;;;;;10395341;28;20197;-79
2022/12/22 04:17:59;;;;;;;30.17;19.00;;;4.80;99.90;;;;;;10382957;28;20477;-78
2022/12/22 04:23:20;;;;;;;26.70;16.67;;;4.80;99.90;;;;;;10395760;28;20244;-78
2022/12/22 04:28:41;;;;;;;28.30;17.27;;;4.80;99.90;;;;;;10369447;28;20230;-78
2022/12/22 04:34:02;;;;;;;26.93;16.10;;;4.70;99.90;;;;;;10357285;28;20235;-77
2022/12/22 04:39:23;;;;;;;25.27;15.20;;;4.70;99.90;;;;;;10375960;28;20288;-78
2022/12/22 04:44:46;;;;;;;26.40;16.43;;;4.80;99.90;;;;;;10367790;28;20203;-78
2022/12/22 04:50:07;;;;;;;30.30;17.10;;;4.80;99.90;;;;;;10393627;28;20225;-78
2022/12/22 04:55:29;;;;;;;22.03;13.37;;;4.80;99.90;;;;;;10362847;28;20197;-79
2022/12/22 05:00:50;;;;;;;30.03;24.37;;;4.80;99.90;;;;;;10345961;28;20290;-78
2022/12/22 05:06:12;;;;;;;34.30;22.40;;;4.80;99.90;;;;;;10370290;28;20282;-79
2022/12/22 05:11:33;;;;;;;26.60;15.37;;;4.80;99.90;;;;;;10402170;28;20232;-78
2022/12/22 05:16:55;;;;;;;26.40;15.93;;;4.80;99.90;;;;;;10383406;28;20502;-78
2022/12/22 05:22:16;;;;;;;34.73;21.10;;;4.80;99.90;;;;;;10382847;28;20204;-78
2022/12/22 05:27:37;;;;;;;38.60;26.50;;;4.90;99.90;;;;;;10400230;28;20212;-78
2022/12/22 05:32:59;;;;;;;39.40;27.67;;;4.80;99.90;;;;;;10409001;28;20316;-78
2022/12/22 05:38:20;;;;;;;34.63;22.40;;;4.80;99.90;;;;;;10386387;28;20202;-78
2022/12/22 05:43:41;;;;;;;35.60;22.20;;;4.80;99.90;;;;;;10401660;28;20207;-79
2022/12/22 05:49:02;;;;;;;56.50;28.27;;;4.80;99.90;;;;;;10400110;28;20313;-78
2022/12/22 05:54:23;;;;;;;58.20;25.03;;;4.80;99.90;;;;;;10400635;28;20231;-78
2022/12/22 05:59:44;;;;;;;50.83;26.53;;;4.80;99.90;;;;;;10360455;28;20203;-78
2022/12/22 06:05:07;;;;;;;50.47;24.23;;;4.80;99.90;;;;;;10367905;28;20525;-78
2022/12/22 06:10:28;;;;;;;35.53;18.37;;;4.80;99.90;;;;;;10400613;28;20230;-78
2022/12/22 06:15:49;;;;;;;47.40;23.27;;;4.80;99.90;;;;;;10376844;28;20446;-79
2022/12/22 06:21:10;;;;;;;37.00;19.07;;;4.90;99.90;;;;;;10359191;28;20251;-78
2022/12/22 06:26:32;;;;;;;33.33;18.07;;;4.80;99.90;;;;;;10366336;28;20255;-78
2022/12/22 06:31:54;;;;;;;46.57;21.60;;;4.80;99.90;;;;;;10383649;28;20242;-79
2022/12/22 06:37:15;;;;;;;38.57;19.73;;;4.80;99.90;;;;;;10382412;28;20230;-78
2022/12/22 06:48:17;;;;;;;45.07;25.90;;;4.80;99.90;;;;;;10396084;28;20220;-78
2022/12/22 06:53:38;;;;;;;43.93;25.50;;;4.70;99.90;;;;;;10358821;28;20490;-78
2022/12/22 06:58:59;;;;;;;42.07;23.97;;;4.70;99.90;;;;;;10427410;28;20232;-78
2022/12/22 07:04:21;;;;;;;55.23;25.43;;;4.70;99.90;;;;;;10438658;28;20430;-79
2022/12/22 07:09:42;;;;;;;48.80;23.97;;;4.70;99.90;;;;;;10438509;28;20233;-79
2022/12/22 07:15:04;;;;;;;61.77;29.33;;;4.70;99.90;;;;;;10430181;28;20438;-78
2022/12/22 07:20:25;;;;;;;52.10;28.07;;;4.70;99.90;;;;;;10366131;28;20194;-78
2022/12/22 07:25:46;;;;;;;56.50;26.87;;;4.70;99.90;;;;;;10388879;28;20210;-78
2022/12/22 07:31:09;;;;;;;51.63;29.03;;;4.70;99.90;;;;;;10386876;28;20259;-79
2022/12/22 07:36:30;;;;;;;40.87;25.73;;;4.70;99.90;;;;;;10381627;28;20252;-78
2022/12/22 07:47:31;;;;;;;71.80;37.40;;;4.70;99.90;;;;;;10396509;28;20193;-78
2022/12/22 07:52:59;;;;;;;52.37;28.07;;;4.70;99.90;;;;;;10382561;28;20398;-78
2022/12/22 07:58:19;;;;;;;39.33;22.63;;;4.80;99.90;;;;;;10381117;28;20210;-78
2022/12/22 08:03:41;;;;;;;52.83;33.90;;;4.70;99.90;;;;;;10371338;28;20205;-78
2022/12/22 08:09:03;;;;;;;55.63;39.87;;;4.70;99.90;;;;;;10391620;28;20456;-78
2022/12/22 08:14:24;;;;;;;44.33;26.47;;;4.70;99.90;;;;;;10394837;28;20232;-78
2022/12/22 08:19:47;;;;;;;39.77;22.67;;;4.70;99.90;;;;;;10396374;28;20193;-79
2022/12/22 08:25:08;;;;;;;40.57;21.33;;;4.80;99.90;;;;;;10355492;28;20328;-78
2022/12/22 08:30:30;;;;;;;48.23;23.63;;;4.80;99.90;;;;;;10389078;28;20249;-77
2022/12/22 08:35:51;;;;;;;35.27;19.60;;;4.90;99.90;;;;;;10428146;28;20213;-78
2022/12/22 08:41:15;;;;;;;37.73;20.27;;;4.90;99.90;;;;;;10380906;28;20205;-79
2022/12/22 08:46:35;;;;;;;40.50;21.33;;;4.90;99.90;;;;;;10349562;28;20255;-79
2022/12/22 08:51:57;;;;;;;42.07;20.87;;;4.90;99.90;;;;;;10385057;28;20547;-82
2022/12/22 08:57:18;;;;;;;39.30;23.43;;;4.80;99.90;;;;;;10374539;28;20204;-79
2022/12/22 09:02:40;;;;;;;48.17;30.67;;;4.80;99.90;;;;;;10371534;28;20209;-78
2022/12/22 09:08:01;;;;;;;43.67;27.87;;;4.80;99.90;;;;;;10370943;28;20305;-79
2022/12/22 09:13:22;;;;;;;52.73;29.63;;;4.70;99.90;;;;;;10368849;28;20205;-78
2022/12/22 09:18:43;;;;;;;33.17;18.60;;;4.70;99.90;;;;;;10401371;28;20210;-79
2022/12/22 09:24:06;;;;;;;31.53;17.00;;;4.80;99.90;;;;;;10412242;28;20237;-79
2022/12/22 09:29:27;;;;;;;32.63;17.77;;;4.90;99.90;;;;;;10385063;28;20253;-78
2022/12/22 09:34:48;;;;;;;30.20;17.53;;;4.90;99.90;;;;;;10380924;28;20197;-79
2022/12/22 09:40:10;;;;;;;37.47;19.43;;;4.90;99.90;;;;;;10402085;28;20239;-77
2022/12/22 09:45:32;;;;;;;39.67;23.73;;;5.00;99.90;;;;;;10360161;28;20230;-79
2022/12/22 09:50:54;;;;;;;34.07;19.87;;;5.10;99.90;;;;;;10398760;28;20257;-80
2022/12/22 09:56:16;;;;;;;37.93;24.57;;;;;;;;;;10407455;28;20209;-78
2022/12/22 10:01:56;;;;;;;37.40;22.83;;;5.10;99.90;;;;;;10399029;28;20214;-82
2022/12/22 10:07:30;;;;;;;34.73;21.03;;;5.10;99.90;;;;;;10397461;28;20212;-78
2022/12/22 10:12:56;;;;;;;37.63;22.33;;;5.10;99.90;;;;;;10436913;28;20234;-79
2022/12/22 10:18:24;;;;;;;52.77;29.17;;;5.10;99.90;;;;;;10410256;28;20263;-78
2022/12/22 10:23:53;;;;;;;38.77;21.57;;;5.10;99.90;;;;;;10394123;28;20490;-79
2022/12/22 10:29:33;;;;;;;43.50;27.00;;;5.10;99.90;;;;;;10381095;28;20256;-78
2022/12/22 10:35:01;;;;;;;36.23;21.53;;;5.10;99.90;;;;;;10415679;28;20190;-78
2022/12/22 10:40:23;;;;;;;42.17;22.17;;;5.10;99.90;;;;;;10386662;28;20406;-78
2022/12/22 10:45:47;;;;;;;40.20;22.63;;;5.20;99.90;;;;;;10360080;28;20210;-77
2022/12/22 10:51:12;;;;;;;45.00;23.83;;;5.10;99.90;;;;;;10378846;28;20587;-78
2022/12/22 10:56:34;;;;;;;32.53;19.80;;;5.20;99.90;;;;;;10392454;28;20210;-77
2022/12/22 11:02:22;;;;;;;43.70;25.23;;;5.10;99.90;;;;;;10392331;28;20218;-77
2022/12/22 11:07:48;;;;;;;44.13;25.27;;;5.20;99.90;;;;;;10391720;28;20233;-78
2022/12/22 11:13:24;;;;;;;42.57;24.20;;;5.10;99.90;;;;;;10393783;28;20244;-78
2022/12/22 11:19:14;;;;;;;44.37;25.73;;;5.10;99.90;;;;;;10399665;28;20437;-79
2022/12/22 11:24:48;;;;;;;42.67;24.37;;;5.10;99.90;;;;;;10400750;28;20202;-77
2022/12/22 11:30:12;;;;;;;44.23;26.20;;;5.10;99.90;;;;;;10376328;28;20675;-76
2022/12/22 11:35:48;;;;;;;49.83;26.20;;;5.20;99.90;;;;;;10387793;28;20500;-78
2022/12/22 11:41:41;;;;;;;48.43;28.10;;;5.20;99.90;;;;;;10390076;28;20214;-78
2022/12/22 11:47:28;;;;;;;64.80;32.90;;;5.30;99.90;;;;;;10360850;28;20214;-81
2022/12/22 11:53:16;;;;;;;73.87;37.20;;;5.30;99.90;;;;;;10379842;28;20235;-83
2022/12/22 11:58:52;;;;;;;73.27;37.83;;;5.30;99.90;;;;;;10342719;28;20206;-78
2022/12/22 12:04:34;;;;;;;58.87;31.60;;;5.30;99.90;;;;;;10372881;28;20222;-79
2022/12/22 12:10:26;;;;;;;53.17;30.87;;;5.30;99.90;;;;;;10387177;28;20246;-76
2022/12/22 12:15:55;;;;;;;44.97;26.03;;;5.30;99.90;;;;;;10240217;28;20527;-78
2022/12/22 12:21:45;;;;;;;52.47;29.90;;;5.30;99.90;;;;;;10261021;28;20247;-79
2022/12/22 12:27:28;;;;;;;73.40;41.07;;;5.30;99.90;;;;;;10271906;28;20339;-77
2022/12/22 12:33:24;;;;;;;68.87;39.67;;;5.30;99.90;;;;;;10312828;28;20261;-78
2022/12/22 12:38:57;;;;;;;64.93;35.97;;;5.30;99.90;;;;;;10156155;29;20222;-78
2022/12/22 12:44:31;;;;;;;57.97;32.23;;;5.30;99.90;;;;;;10181706;29;20229;-78
2022/12/22 12:49:58;;;;;;;55.07;30.53;;;5.20;99.90;;;;;;10236399;28;20322;-78
2022/12/22 12:55:24;;;;;;;52.90;31.43;;;5.30;99.90;;;;;;10245751;28;20617;-78
2022/12/22 13:00:50;;;;;;;56.20;32.37;;;5.20;99.90;;;;;;10287552;28;20220;-78
2022/12/22 13:06:46;;;;;;;50.57;30.60;;;5.20;99.90;;;;;;10280382;28;20295;-78
2022/12/22 13:12:37;;;;;;;44.33;28.30;;;5.20;99.90;;;;;;10296705;28;20238;-78
2022/12/22 13:18:00;;;;;;;44.20;29.13;;;5.20;99.90;;;;;;10387364;28;20216;-78
2022/12/22 13:23:22;;;;;;;41.73;28.67;;;5.20;99.90;;;;;;10398591;28;20194;-78
2022/12/22 13:28:51;;;;;;;52.60;33.03;;;5.30;99.90;;;;;;10384635;28;20221;-78
2022/12/22 13:34:21;;;;;;;52.57;33.27;;;5.20;99.90;;;;;;10405873;28;20711;-78
2022/12/22 13:40:00;;;;;;;45.40;28.83;;;5.10;99.90;;;;;;10399180;28;20206;-78
2022/12/22 13:45:27;;;;;;;40.70;26.13;;;5.10;99.90;;;;;;10394923;28;20590;-78
2022/12/22 13:50:55;;;;;;;40.63;25.33;;;5.10;99.90;;;;;;10397887;28;20252;-77
2022/12/22 13:56:34;;;;;;;44.30;28.77;;;5.10;99.90;;;;;;10411067;28;20290;-78
2022/12/22 14:02:03;;;;;;;44.83;29.40;;;5.10;99.90;;;;;;10416854;28;20197;-78
2022/12/22 14:07:24;;;;;;;47.47;30.10;;;5.10;99.90;;;;;;10402870;28;20208;-80
2022/12/22 14:12:46;;;;;;;46.47;30.10;;;5.00;99.90;;;;;;10400474;28;20245;-78
2022/12/22 14:18:23;;;;;;;52.70;34.70;;;5.10;99.90;;;;;;10371915;28;20218;-78
2022/12/22 14:23:45;;;;;;;79.50;47.33;;;5.10;99.90;;;;;;10414158;28;20438;-82
2022/12/22 14:29:14;;;;;;;64.73;35.17;;;5.00;99.90;;;;;;10418397;28;20229;-80
2022/12/22 14:34:36;;;;;;;60.27;35.33;;;5.00;99.90;;;;;;10396051;28;20197;-77
2022/12/22 14:39:57;;;;;;;53.90;31.70;;;5.00;99.90;;;;;;10399371;28;20203;-79
2022/12/22 14:45:18;;;;;;;55.93;32.47;;;5.00;99.90;;;;;;10393333;28;20202;-78
2022/12/22 14:50:50;;;;;;;55.47;31.77;;;5.00;99.90;;;;;;10402144;28;20228;-78
2022/12/22 14:56:13;;;;;;;65.43;40.93;;;4.90;99.90;;;;;;10372462;28;20212;-78
2022/12/22 15:01:34;;;;;;;103.03;55.30;;;5.00;99.90;;;;;;10394579;28;20206;-78
2022/12/22 15:07:15;;;;;;;80.77;40.93;;;5.00;99.90;;;;;;10397682;28;20204;-81
2022/12/22 15:12:51;;;;;;;55.43;33.03;;;5.00;99.90;;;;;;10398941;28;20260;-77
2022/12/22 15:18:14;;;;;;;73.40;40.07;;;5.00;99.90;;;;;;10396338;28;20211;-78
2022/12/22 15:24:00;;;;;;;52.17;32.60;;;5.00;99.90;;;;;;10407891;28;20245;-77
2022/12/22 15:29:21;;;;;;;71.60;37.67;;;5.00;99.90;;;;;;10411878;28;20263;-79
2022/12/22 15:34:46;;;;;;;77.90;41.00;;;5.00;99.90;;;;;;10386412;28;20229;-79
2022/12/22 15:40:19;;;;;;;74.63;41.07;;;4.90;99.90;;;;;;10393551;28;20527;-78
2022/12/22 15:46:06;;;;;;;49.57;29.60;;;4.90;99.90;;;;;;10393502;28;20220;-79
2022/12/22 15:51:29;;;;;;;54.17;35.63;;;5.00;99.90;;;;;;10392133;28;20226;-78
2022/12/22 15:56:52;;;;;;;60.43;34.60;;;4.90;99.90;;;;;;10386854;28;20288;-80
2022/12/22 16:02:14;;;;;;;57.67;33.63;;;5.00;99.90;;;;;;10381898;28;20256;-79
2022/12/22 16:07:37;;;;;;;83.20;44.97;;;5.00;99.90;;;;;;10374605;28;20246;-79
2022/12/22 16:13:02;;;;;;;63.43;35.23;;;5.00;99.90;;;;;;10379665;28;20424;-79
2022/12/22 16:18:24;;;;;;;43.30;29.47;;;5.00;99.90;;;;;;10392324;28;20249;-78
2022/12/22 16:23:47;;;;;;;46.43;28.80;;;4.90;99.90;;;;;;10395652;28;20196;-78
2022/12/22 16:29:14;;;;;;;56.07;32.70;;;4.90;99.90;;;;;;10391670;28;20209;-80
2022/12/22 16:34:35;;;;;;;40.13;22.43;;;5.00;99.90;;;;;;10378132;28;20286;-79
2022/12/22 16:39:56;;;;;;;39.73;21.53;;;5.00;99.90;;;;;;10361000;28;20261;-79
2022/12/22 16:45:21;;;;;;;39.87;22.43;;;5.00;99.90;;;;;;10361488;28;20233;-79
2022/12/22 16:50:45;;;;;;;41.63;23.90;;;4.90;99.90;;;;;;10394963;28;20223;-79
2022/12/22 16:56:13;;;;;;;31.67;22.37;;;4.90;99.90;;;;;;10393687;28;20209;-78
2022/12/22 17:01:38;;;;;;;29.63;20.20;;;5.00;99.90;;;;;;10395057;28;20265;-79
2022/12/22 17:07:00;;;;;;;32.70;21.90;;;5.00;99.90;;;;;;10379897;28;20264;-79
2022/12/22 17:12:25;;;;;;;40.00;27.90;;;4.90;99.90;;;;;;10380854;28;20317;-79
2022/12/22 17:17:48;;;;;;;56.30;30.13;;;4.90;99.90;;;;;;10343641;28;20213;-79
2022/12/22 17:23:33;;;;;;;37.77;22.63;;;4.90;99.90;;;;;;10356388;28;20196;-79
2022/12/22 17:28:54;;;;;;;35.13;19.77;;;4.90;99.90;;;;;;10394128;28;20233;-78
2022/12/22 17:34:17;;;;;;;32.20;18.03;;;4.90;99.90;;;;;;10393639;28;20257;-80
2022/12/22 17:39:39;;;;;;;35.63;19.77;;;5.00;99.90;;;;;;10364341;28;20277;-79
2022/12/22 17:44:59;;;;;;;51.00;29.47;;;4.90;99.90;;;;;;10353753;28;20531;-79
2022/12/22 17:50:22;;;;;;;45.70;26.73;;;4.90;99.90;;;;;;10380441;28;20227;-79
2022/12/22 17:55:45;;;;;;;28.17;19.90;;;4.90;99.90;;;;;;10394041;28;20210;-79
2022/12/22 18:01:28;;;;;;;28.40;19.93;;;4.90;99.90;;;;;;10378496;28;20243;-79
2022/12/22 18:06:49;;;;;;;35.87;20.97;;;5.00;99.90;;;;;;10379788;28;20231;-79
2022/12/22 18:12:15;;;;;;;37.37;22.10;;;5.00;99.90;;;;;;10365583;28;20297;-79
2022/12/22 18:17:36;;;;;;;36.60;21.37;;;5.00;99.90;;;;;;10386605;28;20367;-79
2022/12/22 18:22:59;;;;;;;34.80;21.83;;;5.00;99.90;;;;;;10373026;28;20202;-79
2022/12/22 18:28:22;;;;;;;35.23;22.43;;;5.00;99.90;;;;;;10385484;28;20281;-78
2022/12/22 18:33:43;;;;;;;33.83;22.77;;;5.00;99.90;;;;;;10386725;28;20230;-79
2022/12/22 18:39:04;;;;;;;28.57;19.27;;;5.00;99.90;;;;;;10385031;28;20225;-79
2022/12/22 18:44:26;;;;;;;37.17;22.50;;;5.00;99.90;;;;;;10360108;28;20195;-79
2022/12/22 18:49:47;;;;;;;46.30;27.97;;;5.00;99.90;;;;;;10377418;28;20253;-79
2022/12/22 18:55:22;;;;;;;38.13;26.10;;;5.00;99.90;;;;;;10372038;28;20257;-79
2022/12/22 19:00:44;;;;;;;34.47;21.00;;;5.00;99.90;;;;;;10398286;28;20204;-79
2022/12/22 19:06:05;;;;;;;28.37;19.27;;;5.00;99.90;;;;;;10384315;28;20534;-79
2022/12/22 19:11:29;;;;;;;29.37;18.60;;;5.00;99.90;;;;;;10357755;28;20235;-79
2022/12/22 19:16:50;;;;;;;31.87;18.80;;;5.00;99.90;;;;;;10365085;28;20215;-79
2022/12/22 19:22:12;;;;;;;31.97;19.93;;;5.00;99.90;;;;;;10398256;28;20195;-79
2022/12/22 19:27:34;;;;;;;35.33;21.93;;;5.00;99.90;;;;;;10396011;28;20214;-79
2022/12/22 19:33:01;;;;;;;35.50;21.43;;;5.00;99.90;;;;;;10390046;28;20243;-79
2022/12/22 19:38:25;;;;;;;26.23;17.40;;;5.00;99.90;;;;;;10396507;28;20212;-80
2022/12/22 19:43:46;;;;;;;28.63;17.97;;;5.10;99.90;;;;;;10383672;28;20195;-79
2022/12/22 19:49:16;;;;;;;32.70;20.40;;;5.00;99.90;;;;;;10375020;28;20201;-79
2022/12/22 19:54:37;;;;;;;33.97;21.00;;;5.10;99.90;;;;;;10389335;28;20502;-79
2022/12/22 19:59:58;;;;;;;33.97;22.13;;;5.10;99.90;;;;;;10383153;28;20493;-79
2022/12/22 20:05:23;;;;;;;29.70;17.87;;;5.10;99.90;;;;;;10395820;28;20524;-79
2022/12/22 20:10:45;;;;;;;28.27;17.77;;;5.10;99.90;;;;;;10396171;28;20229;-80
2022/12/22 20:16:06;;;;;;;33.57;20.43;;;5.10;99.90;;;;;;10395392;28;20206;-79
2022/12/22 20:21:28;;;;;;;38.30;21.40;;;5.10;99.90;;;;;;10395386;28;20202;-79
2022/12/22 20:26:50;;;;;;;28.00;16.47;;;5.10;99.90;;;;;;10356493;28;20199;-79
2022/12/22 20:32:14;;;;;;;30.03;16.43;;;5.20;99.90;;;;;;10360747;28;20295;-79
2022/12/22 20:37:36;;;;;;;21.17;13.90;;;5.20;99.90;;;;;;10368205;28;20195;-79
2022/12/22 20:42:58;;;;;;;18.03;11.30;;;5.20;99.90;;;;;;10367321;28;20206;-80
2022/12/22 20:48:26;;;;;;;20.13;12.07;;;5.20;99.90;;;;;;10367697;28;20261;-80
2022/12/22 20:53:48;;;;;;;22.30;12.10;;;5.20;99.90;;;;;;10380459;28;20292;-79
2022/12/22 20:59:19;;;;;;;17.23;11.60;;;5.20;99.90;;;;;;10395513;28;20241;-79
2022/12/22 21:04:40;;;;;;;19.27;11.83;;;5.30;99.90;;;;;;10395121;28;20199;-79
2022/12/22 21:10:04;;;;;;;18.73;12.17;;;5.30;99.90;;;;;;10376416;28;20243;-79
2022/12/22 21:15:26;;;;;;;16.77;11.00;;;5.30;99.90;;;;;;10370214;28;20203;-79
2022/12/22 21:20:49;;;;;;;15.80;10.50;;;5.30;99.90;;;;;;10380970;28;20204;-79
2022/12/22 21:26:42;;;;;;;13.70;9.87;;;5.40;99.90;;;;;;10394696;28;20193;-79
2022/12/22 21:32:03;;;;;;;13.37;9.63;;;5.40;99.90;;;;;;10357605;28;20317;-79
2022/12/22 21:37:25;;;;;;;11.53;8.50;;;5.40;99.90;;;;;;10394268;28;20200;-79
2022/12/22 21:42:46;;;;;;;9.80;6.50;;;5.40;99.90;;;;;;10381765;28;20206;-79
2022/12/22 21:48:11;;;;;;;8.43;5.90;;;5.50;99.90;;;;;;10381048;28;20194;-79
2022/12/22 21:53:32;;;;;;;7.60;5.50;;;5.60;99.90;;;;;;10399870;28;20271;-79
2022/12/22 21:58:54;;;;;;;9.13;6.53;;;5.60;99.90;;;;;;10401704;28;20213;-79
2022/12/22 22:04:19;;;;;;;9.13;7.17;;;5.70;99.90;;;;;;10373399;28;20203;-79
2022/12/22 22:09:40;;;;;;;9.57;7.07;;;5.70;99.90;;;;;;10386765;28;20230;-80
2022/12/22 22:15:03;;;;;;;6.70;5.20;;;5.60;99.90;;;;;;10348957;28;20200;-79
2022/12/22 22:20:28;;;;;;;9.40;6.17;;;5.50;99.90;;;;;;10370346;28;20409;-78
2022/12/22 22:25:56;;;;;;;8.20;5.87;;;5.50;99.90;;;;;;10386620;28;20484;-79
2022/12/22 22:31:17;;;;;;;9.77;6.60;;;5.40;99.90;;;;;;10371600;28;20313;-79
2022/12/22 22:36:38;;;;;;;9.30;6.83;;;5.30;99.90;;;;;;10400452;28;20236;-79
2022/12/22 22:42:00;;;;;;;13.67;7.70;;;5.20;99.90;;;;;;10370117;28;20202;-79
2022/12/22 22:47:21;;;;;;;10.23;6.30;;;5.20;99.90;;;;;;10345314;28;20194;-79
2022/12/22 22:52:42;;;;;;;10.93;7.00;;;5.20;99.90;;;;;;10391702;28;20252;-79
2022/12/22 22:58:04;;;;;;;9.87;7.40;;;5.10;99.90;;;;;;10359773;28;20387;-78
2022/12/22 23:03:25;;;;;;;8.90;6.87;;;5.10;99.90;;;;;;10371238;28;20211;-78
2022/12/22 23:08:47;;;;;;;10.77;7.73;;;5.00;99.90;;;;;;10398451;28;20227;-78
2022/12/22 23:14:09;;;;;;;10.73;7.50;;;5.00;99.90;;;;;;10384427;28;20423;-79
2022/12/22 23:19:30;;;;;;;11.23;7.93;;;5.00;99.90;;;;;;10405411;28;20501;-79
2022/12/22 23:24:51;;;;;;;10.17;7.07;;;5.00;99.90;;;;;;10425472;28;20579;-79
2022/12/22 23:30:13;;;;;;;11.57;7.10;;;4.90;99.90;;;;;;10381043;28;20576;-80
2022/12/22 23:35:39;;;;;;;11.37;8.63;;;4.90;99.90;;;;;;10397486;28;20200;-79
2022/12/22 23:41:06;;;;;;;17.97;10.73;;;4.80;99.90;;;;;;10384204;28;20399;-79
2022/12/22 23:46:27;;;;;;;27.33;12.70;;;4.90;99.90;;;;;;10382083;28;20191;-79
2022/12/22 23:51:48;;;;;;;30.27;13.70;;;4.90;99.90;;;;;;10412206;28;20230;-79
2022/12/22 23:57:09;;;;;;;24.13;12.40;;;4.90;99.90;;;;;;10438188;28;20197;-79
